Time;durP1;ratioP1;P1;durP2;ratioP2;P2;SDS_P1;SDS_P2;PMS_P1;PMS_P2;Temp;Humidity;BMP_temperature;BMP_pressure;BME280_temperature;BME280_humidity;BME280_pressure;Samples;Min_cycle;Max_cycle;Signal;HPM_P1;HPM_P2
2022/02/01 00:00:10;;;;;;;8.43;2.50;;;;;;;3.45;100.00;102258.13;5031876;28;20155;-76
2022/02/01 00:02:45;;;;;;;9.30;2.58;;;;;;;3.33;100.00;102271.97;5032431;28;20144;-76
2022/02/01 00:05:19;;;;;;;8.68;1.95;;;;;;;3.44;100.00;102276.56;5032278;28;20061;-76
2022/02/01 00:07:56;;;;;;;11.55;2.63;;;;;;;3.45;100.00;102271.34;5031390;28;20115;-76
2022/02/01 00:10:38;;;;;;;12.65;2.63;;;;;;;3.50;100.00;102259.13;5032051;28;20084;-75
2022/02/01 00:13:13;;;;;;;11.50;2.45;;;;;;;3.57;100.00;102253.97;5031897;28;20077;-76
2022/02/01 00:16:11;;;;;;;7.38;2.38;;;;;;;3.54;100.00;102253.06;5031689;28;20060;-75
2022/02/01 00:19:06;;;;;;;9.02;2.13;;;;;;;3.50;100.00;102252.97;5032006;28;20057;-75
2022/02/01 00:35:40;;;;;;;7.82;1.90;;;;;;;3.62;100.00;102294.53;4992077;28;20497;-69
2022/02/01 00:38:21;;;;;;;13.70;2.47;;;;;;;3.64;100.00;102263.78;5030905;28;20081;-69
2022/02/01 00:40:57;;;;;;;12.63;2.45;;;;;;;3.62;100.00;102276.06;5031715;28;20061;-69
2022/02/01 00:43:30;;;;;;;9.93;2.42;;;;;;;3.62;100.00;102297.19;5031613;28;20132;-70
2022/02/01 00:46:02;;;;;;;13.25;2.83;;;;;;;3.65;100.00;102289.34;5031726;28;20049;-69
2022/02/01 00:48:51;;;;;;;10.60;2.17;;;;;;;3.65;100.00;102262.94;5030495;28;20053;-70
2022/02/01 00:51:23;;;;;;;8.05;1.83;;;;;;;3.65;100.00;102247.97;5030953;28;20466;-75
2022/02/01 00:53:51;;;;;;;14.05;2.25;;;;;;;3.54;100.00;102220.47;5031335;28;20045;-75
2022/02/01 00:56:19;;;;;;;9.15;1.95;;;;;;;3.45;100.00;102196.56;5031450;28;20069;-75
2022/02/01 00:58:47;;;;;;;12.27;2.15;;;;;;;3.46;100.00;102198.34;5031304;28;20053;-75
2022/02/01 01:01:15;;;;;;;16.85;2.47;;;;;;;3.51;100.00;102208.13;5031518;28;20056;-76
2022/02/01 01:03:45;;;;;;;9.02;1.95;;;;;;;3.70;100.00;102217.28;5031325;28;20541;-75
2022/02/01 01:06:13;;;;;;;5.32;2.22;;;;;;;3.77;100.00;102225.31;5031381;28;20437;-76
2022/02/01 01:08:44;;;;;;;8.85;2.08;;;;;;;3.88;100.00;102231.66;5031250;28;20543;-75
2022/02/01 01:11:13;;;;;;;8.40;2.38;;;;;;;3.87;100.00;102229.91;5031181;28;20128;-76
2022/02/01 01:14:06;;;;;;;9.30;2.10;;;;;;;3.83;100.00;102225.41;5031592;28;20465;-75
2022/02/01 01:45:10;;;;;;;7.70;2.00;;;;;;;3.86;100.00;102243.94;4993032;28;20123;-70
2022/02/01 01:53:20;;;;;;;6.35;2.10;;;;;;;3.84;100.00;102246.56;4992976;28;20065;-70
2022/02/01 01:56:19;;;;;;;9.40;2.15;;;;;;;3.85;100.00;102258.91;4993968;28;20107;-70
2022/02/01 01:58:49;;;;;;;8.73;1.98;;;;;;;3.80;100.00;102246.47;5034025;28;20056;-75
2022/02/01 02:01:17;;;;;;;6.70;2.13;;;;;;;3.71;100.00;102245.47;5034616;28;20065;-75
2022/02/01 02:03:49;;;;;;;13.90;2.65;;;;;;;3.71;100.00;102234.00;5034310;28;20085;-75
2022/02/01 02:06:18;;;;;;;13.63;2.80;;;;;;;3.64;100.00;102221.53;5034575;28;20095;-75
2022/02/01 02:08:50;;;;;;;8.50;2.50;;;;;;;3.62;100.00;102216.22;5034423;28;20061;-75
2022/02/01 02:11:28;;;;;;;15.85;3.13;;;;;;;3.65;100.00;102215.41;5034281;28;20081;-70
2022/02/01 02:14:19;;;;;;;11.95;2.95;;;;;;;3.55;100.00;102219.63;5015655;28;20045;-70
2022/02/01 02:16:53;;;;;;;9.10;2.53;;;;;;;3.54;100.00;102236.31;5032810;28;20046;-70
2022/02/01 02:19:26;;;;;;;15.20;3.88;;;;;;;3.53;100.00;102230.16;5034061;28;20046;-70
2022/02/01 02:22:03;;;;;;;8.82;2.53;;;;;;;3.53;100.00;102234.53;5033725;28;20072;-70
2022/02/01 02:24:40;;;;;;;8.77;2.28;;;;;;;3.45;100.00;102228.22;5033171;28;20132;-75
2022/02/01 02:27:09;;;;;;;14.10;2.80;;;;;;;3.47;100.00;102214.19;5033430;28;20061;-75
2022/02/01 02:30:00;;;;;;;11.73;2.65;;;;;;;3.53;100.00;102208.16;5032708;28;20159;-75
2022/02/01 02:32:28;;;;;;;11.52;2.65;;;;;;;3.50;100.00;102197.53;5033521;28;20493;-75
2022/02/01 02:34:56;;;;;;;12.57;4.25;;;;;;;3.47;100.00;102198.34;5033281;28;20050;-75
2022/02/01 02:37:30;;;;;;;7.40;2.63;;;;;;;3.52;100.00;102190.53;5033662;28;20093;-74
2022/02/01 02:40:15;;;;;;;14.48;3.53;;;;;;;3.55;100.00;102194.09;5033180;28;20538;-75
2022/02/01 02:45:37;;;;;;;13.55;2.92;;;;;;;3.63;100.00;102190.75;5032627;28;20100;-70
2022/02/01 02:48:12;;;;;;;12.52;3.30;;;;;;;3.62;100.00;102203.03;5031878;28;20065;-70
2022/02/01 02:50:46;;;;;;;12.52;3.40;;;;;;;3.68;100.00;102202.28;5032804;28;20513;-69
2022/02/01 02:53:25;;;;;;;15.85;3.88;;;;;;;3.66;100.00;102189.06;5031967;28;20104;-69
2022/02/01 02:56:10;;;;;;;9.32;3.13;;;;;;;3.76;100.00;102184.78;5032951;28;20081;-71
2022/02/01 02:58:41;;;;;;;11.05;3.22;;;;;;;3.71;100.00;102189.09;5031820;28;20151;-70
2022/02/01 03:01:21;;;;;;;12.57;3.08;;;;;;;3.77;100.00;102177.78;5033145;28;20053;-69
2022/02/01 03:03:55;;;;;;;13.45;2.92;;;;;;;3.79;100.00;102169.00;5032707;28;20417;-69
2022/02/01 03:06:29;;;;;;;14.35;3.53;;;;;;;3.79;100.00;102141.72;5032276;28;20072;-69
2022/02/01 03:09:05;;;;;;;12.40;3.35;;;;;;;3.89;100.00;102144.53;5031879;28;20118;-69
2022/02/01 03:11:41;;;;;;;11.02;3.40;;;;;;;3.91;100.00;102118.16;5033100;28;20059;-72
2022/02/01 03:14:44;;;;;;;14.23;3.03;;;;;;;3.96;100.00;102121.75;5032987;28;20081;-72
2022/02/01 03:19:46;;;;;;;13.25;3.05;;;;;;;3.91;100.00;102121.69;5032972;28;20049;-72
2022/02/01 03:20:14;;;;;;;12.25;3.40;;;;;;;4.00;100.00;102105.09;5032338;28;20129;-72
2022/02/01 03:22:50;;;;;;;11.48;3.13;;;;;;;3.98;100.00;102090.09;5032259;28;20053;-72
2022/02/01 03:25:28;;;;;;;14.32;3.17;;;;;;;3.96;100.00;102081.25;5032257;28;20053;-69
2022/02/01 03:28:02;;;;;;;13.95;3.70;;;;;;;3.95;100.00;102090.03;5031242;28;20501;-70
2022/02/01 03:30:30;;;;;;;11.70;3.25;;;;;;;3.92;100.00;102080.34;5032661;28;20052;-76
2022/02/01 03:32:57;;;;;;;10.57;2.50;;;;;;;3.96;100.00;102083.91;5032915;28;20057;-77
2022/02/01 03:35:25;;;;;;;12.60;4.13;;;;;;;3.95;100.00;102077.75;5032060;28;20171;-76
2022/02/01 03:37:53;;;;;;;6.38;2.67;;;;;;;3.97;100.00;102083.94;5032724;28;20053;-74
2022/02/01 03:40:22;;;;;;;10.77;3.13;;;;;;;3.96;100.00;102082.13;5032452;28;20128;-76
2022/02/01 03:42:50;;;;;;;15.13;3.25;;;;;;;3.98;100.00;102085.69;5033104;28;20073;-75
2022/02/01 03:45:18;;;;;;;12.93;3.10;;;;;;;3.98;100.00;102083.03;5032747;28;20049;-75
2022/02/01 03:47:46;;;;;;;9.95;2.80;;;;;;;4.01;100.00;102088.38;5032676;28;20100;-75
2022/02/01 03:50:14;;;;;;;10.75;3.08;;;;;;;4.08;100.00;102089.34;5033039;28;20421;-76
2022/02/01 03:52:42;;;;;;;12.63;3.47;;;;;;;4.03;100.00;102083.13;5032809;28;20060;-75
2022/02/01 03:55:10;;;;;;;13.10;3.35;;;;;;;4.01;100.00;102083.09;5032894;28;20053;-75
2022/02/01 03:57:39;;;;;;;12.38;3.28;;;;;;;4.06;100.00;102088.47;5032940;28;20056;-75
2022/02/01 04:00:09;;;;;;;12.65;2.97;;;;;;;4.00;100.00;102080.44;5032976;28;20061;-75
2022/02/01 04:03:04;;;;;;;15.82;3.97;;;;;;;4.04;100.00;102071.69;5032566;28;20209;-76
2022/02/01 04:05:55;;;;;;;11.73;3.35;;;;;;;4.07;100.00;102074.38;5032406;28;20048;-74
2022/02/01 04:08:24;;;;;;;13.00;3.70;;;;;;;4.14;100.00;102070.97;5032500;28;20061;-76
2022/02/01 04:10:52;;;;;;;17.35;4.60;;;;;;;4.16;100.00;102068.34;5032764;28;20129;-77
2022/02/01 04:13:21;;;;;;;18.83;4.00;;;;;;;4.17;100.00;102065.72;5032191;28;20049;-77
2022/02/01 04:15:49;;;;;;;17.92;3.97;;;;;;;4.20;100.00;102052.53;5031980;28;20588;-77
2022/02/01 04:18:18;;;;;;;21.17;5.30;;;;;;;4.28;100.00;102044.72;5031823;28;20060;-76
2022/02/01 04:21:11;;;;;;;18.75;4.97;;;;;;;4.34;100.00;102042.16;5032033;28;20100;-76
2022/02/01 04:23:38;;;;;;;20.08;5.50;;;;;;;4.36;100.00;102031.59;5032303;28;20137;-77
2022/02/01 04:26:07;;;;;;;18.80;6.13;;;;;;;4.40;100.00;102046.66;5032278;28;20467;-77
2022/02/01 04:28:36;;;;;;;18.42;6.10;;;;;;;4.46;100.00;102046.69;5032039;28;20049;-76
2022/02/01 04:31:04;;;;;;;17.20;5.30;;;;;;;4.52;100.00;102035.34;5032236;28;20080;-76
2022/02/01 04:33:32;;;;;;;15.73;5.68;;;;;;;4.51;100.00;102034.44;5031571;28;20046;-75
2022/02/01 04:36:00;;;;;;;20.92;6.88;;;;;;;4.51;100.00;102033.56;5032162;28;20072;-76
2022/02/01 04:38:27;;;;;;;19.20;5.50;;;;;;;4.48;100.00;102030.00;5031992;28;20049;-76
2022/02/01 04:40:55;;;;;;;15.90;5.68;;;;;;;4.47;100.00;102024.69;5032047;28;20060;-76
2022/02/01 04:43:23;;;;;;;18.63;5.95;;;;;;;4.39;100.00;102013.16;5031796;28;20056;-76
2022/02/01 04:45:52;;;;;;;18.15;6.10;;;;;;;4.42;100.00;102022.00;5032087;28;20133;-76
2022/02/01 04:48:20;;;;;;;15.73;4.85;;;;;;;4.43;100.00;102020.25;5031748;28;20049;-76
2022/02/01 04:50:56;;;;;;;22.98;7.00;;;;;;;4.41;100.00;102017.59;5031907;28;20057;-70
2022/02/01 04:53:24;;;;;;;17.23;5.60;;;;;;;4.42;100.00;102006.13;5033060;28;20081;-75
2022/02/01 04:55:56;;;;;;;22.50;6.22;;;;;;;4.41;100.00;102006.13;5035727;28;20097;-72
2022/02/01 04:58:26;;;;;;;20.20;6.18;;;;;;;4.45;100.00;101987.69;5035734;28;20050;-77
2022/02/01 05:00:55;;;;;;;15.73;5.65;;;;;;;4.49;100.00;101983.31;5035453;28;20141;-76
2022/02/01 05:03:23;;;;;;;19.83;5.72;;;;;;;4.49;100.00;101978.94;5035862;28;20073;-77
2022/02/01 05:05:51;;;;;;;17.17;4.88;;;;;;;4.47;100.00;101964.78;5036095;28;20053;-76
2022/02/01 05:08:19;;;;;;;14.60;5.72;;;;;;;4.53;100.00;101958.69;5035496;28;20085;-76
2022/02/01 05:10:47;;;;;;;16.90;6.07;;;;;;;4.57;100.00;101954.31;5035109;28;20134;-76
2022/02/01 05:16:06;;;;;;;22.88;6.03;;;;;;;4.53;100.00;101937.56;5035352;28;20053;-76
2022/02/01 05:19:04;;;;;;;22.80;5.32;;;;;;;4.58;100.00;101934.94;5035164;28;20137;-76
2022/02/01 05:21:58;;;;;;;15.30;5.28;;;;;;;4.59;100.00;101915.56;5034828;28;20155;-77
2022/02/01 05:24:25;;;;;;;16.63;5.18;;;;;;;4.61;100.00;101916.47;5035018;28;20050;-77
2022/02/01 05:26:54;;;;;;;16.98;4.65;;;;;;;4.62;100.00;101928.81;5035408;28;20157;-76
2022/02/01 05:29:23;;;;;;;22.42;6.20;;;;;;;4.64;100.00;101935.00;5034945;28;20051;-76
2022/02/01 05:31:52;;;;;;;16.40;5.13;;;;;;;4.62;100.00;101919.13;5035132;28;20484;-76
2022/02/01 05:34:21;;;;;;;18.00;5.55;;;;;;;4.62;100.00;101903.25;5034956;28;20092;-75
2022/02/01 05:36:49;;;;;;;16.38;5.95;;;;;;;4.64;100.00;101901.50;5034467;28;20088;-76
2022/02/01 05:39:20;;;;;;;19.05;5.85;;;;;;;4.65;100.00;101905.06;5034681;28;20053;-70
2022/02/01 05:41:59;;;;;;;16.95;5.35;;;;;;;4.66;100.00;101918.28;5016965;28;20049;-70
2022/02/01 05:44:32;;;;;;;18.90;6.80;;;;;;;4.71;100.00;101898.94;5033975;28;20389;-70
2022/02/01 05:47:05;;;;;;;16.58;5.70;;;;;;;4.71;100.00;101881.31;5034458;28;20060;-75
2022/02/01 05:49:32;;;;;;;18.52;6.88;;;;;;;4.72;100.00;101880.44;5034592;28;20132;-76
2022/02/01 05:52:01;;;;;;;18.52;7.07;;;;;;;4.73;100.00;101866.34;5034480;28;20457;-76
2022/02/01 05:54:30;;;;;;;23.60;6.60;;;;;;;4.78;100.00;101855.81;5034494;28;20053;-76
2022/02/01 05:56:59;;;;;;;18.50;6.90;;;;;;;4.83;100.00;101862.00;5034357;28;20100;-70
2022/02/01 05:59:33;;;;;;;20.30;7.40;;;;;;;4.84;100.00;101862.03;5034141;28;20121;-70
2022/02/01 06:02:14;;;;;;;18.60;6.10;;;;;;;4.85;100.00;101862.91;5033160;28;20068;-70
2022/02/01 06:04:43;;;;;;;21.55;7.43;;;;;;;4.89;100.00;101869.09;5032407;28;20068;-70
2022/02/01 06:07:16;;;;;;;16.73;7.15;;;;;;;4.91;100.00;101867.38;5034357;28;20490;-70
2022/02/01 06:09:49;;;;;;;19.45;7.07;;;;;;;4.89;100.00;101870.00;5034110;28;20049;-70
2022/02/01 06:12:23;;;;;;;18.65;7.47;;;;;;;4.91;100.00;101857.69;5034096;28;20407;-70
2022/02/01 06:14:56;;;;;;;18.60;7.22;;;;;;;4.91;100.00;101843.56;5032104;28;20051;-70
2022/02/01 06:17:30;;;;;;;18.42;7.35;;;;;;;4.89;100.00;101837.38;5033357;28;20137;-70
2022/02/01 06:20:04;;;;;;;17.67;6.90;;;;;;;4.96;100.00;101840.06;5033922;28;20077;-70
2022/02/01 06:22:40;;;;;;;21.77;7.10;;;;;;;5.01;100.00;101840.13;5033287;28;20133;-70
2022/02/01 06:25:22;;;;;;;22.90;6.85;;;;;;;4.99;100.00;101836.59;5034024;28;20133;-70
2022/02/01 06:27:50;;;;;;;20.15;7.03;;;;;;;4.99;100.00;101826.88;5034094;28;20084;-76
2022/02/01 06:30:21;;;;;;;24.05;6.43;;;;;;;5.02;100.00;101831.28;5033784;28;20136;-71
2022/02/01 06:32:59;;;;;;;13.20;6.13;;;;;;;5.03;100.00;101815.44;5033379;28;20041;-70
2022/02/01 06:35:32;;;;;;;17.95;6.07;;;;;;;5.06;100.00;101814.59;5033632;28;20148;-71
2022/02/01 06:38:02;;;;;;;19.98;6.50;;;;;;;5.10;100.00;101819.00;5031895;28;20046;-71
2022/02/01 06:40:40;;;;;;;22.60;6.65;;;;;;;5.09;100.00;101822.53;5033153;28;20357;-70
2022/02/01 06:43:14;;;;;;;16.67;6.63;;;;;;;5.14;100.00;101820.81;5032055;28;20056;-71
2022/02/01 06:45:48;;;;;;;15.93;5.18;;;;;;;5.15;100.00;101825.22;5033339;28;20059;-71
2022/02/01 06:48:23;;;;;;;17.17;6.07;;;;;;;5.18;100.00;101819.06;5031883;28;20057;-70
2022/02/01 06:50:52;;;;;;;20.50;6.88;;;;;;;5.18;100.00;101798.78;5032369;28;20060;-77
2022/02/01 06:53:23;;;;;;;17.77;5.90;;;;;;;5.16;100.00;101794.34;5033343;28;20544;-77
2022/02/01 06:56:07;;;;;;;17.17;6.00;;;;;;;5.18;100.00;101784.66;5033855;28;20045;-77
2022/02/01 06:59:01;;;;;;;25.88;6.78;;;;;;;5.23;100.00;101794.38;5033394;28;20068;-76
2022/02/01 07:01:30;;;;;;;15.13;5.82;;;;;;;5.22;100.00;101789.97;5033255;28;20083;-76
2022/02/01 07:04:00;;;;;;;15.25;5.47;;;;;;;5.23;100.00;101777.63;5033481;28;20049;-77
2022/02/01 07:06:30;;;;;;;15.15;5.53;;;;;;;5.22;100.00;101781.16;5033104;28;20053;-77
2022/02/01 07:09:00;;;;;;;13.20;5.72;;;;;;;5.21;100.00;101788.22;5033694;28;20064;-76
2022/02/01 07:11:28;;;;;;;15.18;6.38;;;;;;;5.22;100.00;101774.06;5033120;28;20080;-76
2022/02/01 07:13:56;;;;;;;16.10;5.78;;;;;;;5.23;100.00;101780.28;5033352;28;20073;-73
2022/02/01 07:16:25;;;;;;;12.00;4.50;;;;;;;5.21;100.00;101777.63;5032163;28;20129;-74
2022/02/01 07:18:55;;;;;;;11.13;4.45;;;;;;;5.28;100.00;101780.28;5032687;28;20049;-75
2022/02/01 07:21:26;;;;;;;15.35;4.80;;;;;;;5.30;100.00;101773.25;5032366;28;20050;-74
2022/02/01 07:23:54;;;;;;;12.20;4.38;;;;;;;5.32;100.00;101769.72;5032538;28;20053;-74
2022/02/01 07:26:22;;;;;;;12.20;4.68;;;;;;;5.34;100.00;101767.09;5032355;28;20529;-75
2022/02/01 07:28:50;;;;;;;11.02;4.70;;;;;;;5.30;100.00;101767.97;5032245;28;20049;-75
2022/02/01 07:31:18;;;;;;;11.85;4.68;;;;;;;5.33;100.00;101768.84;5032653;28;20446;-74
2022/02/01 07:33:47;;;;;;;13.20;4.57;;;;;;;5.34;100.00;101756.50;5032378;28;20084;-74
2022/02/01 07:36:17;;;;;;;11.57;5.18;;;;;;;5.33;100.00;101747.69;5032390;28;20097;-74
2022/02/01 07:38:46;;;;;;;7.22;4.40;;;;;;;5.35;100.00;101747.69;5032123;28;20508;-73
2022/02/01 07:41:14;;;;;;;10.13;4.43;;;;;;;5.39;100.00;101736.22;5032077;28;20133;-76
2022/02/01 07:43:42;;;;;;;12.15;3.90;;;;;;;5.46;100.00;101734.50;5032368;28;20077;-76
2022/02/01 07:46:14;;;;;;;9.13;4.20;;;;;;;5.47;100.00;101731.84;5032260;28;20083;-76
2022/02/01 07:48:42;;;;;;;9.02;4.65;;;;;;;5.47;100.00;101733.63;5032407;28;20445;-74
2022/02/01 07:51:13;;;;;;;9.85;4.70;;;;;;;5.45;100.00;101730.06;5031875;28;20049;-74
2022/02/01 07:53:41;;;;;;;12.60;5.07;;;;;;;5.46;100.00;101713.31;5031958;28;20054;-76
2022/02/01 07:56:10;;;;;;;10.57;4.55;;;;;;;5.55;100.00;101715.97;5032513;28;20095;-75
2022/02/01 07:58:38;;;;;;;13.25;5.50;;;;;;;5.49;100.00;101710.69;5032100;28;20076;-75
2022/02/01 08:01:06;;;;;;;10.57;4.65;;;;;;;5.52;100.00;101713.34;5032230;28;20061;-75
2022/02/01 08:03:34;;;;;;;15.57;5.43;;;;;;;5.54;100.00;101715.09;5032223;28;20049;-75
2022/02/01 08:06:02;;;;;;;11.65;4.80;;;;;;;5.57;100.00;101711.59;5032131;28;20073;-75
2022/02/01 08:08:30;;;;;;;10.75;4.70;;;;;;;5.61;100.00;101716.00;5032129;28;20080;-75
2022/02/01 08:10:59;;;;;;;13.40;4.90;;;;;;;5.63;100.00;101708.06;5031989;28;20508;-75
2022/02/01 08:19:22;;;;;;;14.63;5.72;;;;;;;5.67;100.00;101701.88;5032149;28;20523;-75
2022/02/01 08:21:53;;;;;;;11.02;4.38;;;;;;;5.69;100.00;101700.13;5031874;28;20120;-75
2022/02/01 08:24:21;;;;;;;13.75;5.63;;;;;;;5.70;100.00;101705.41;5031770;28;20049;-75
2022/02/01 08:26:49;;;;;;;15.63;5.10;;;;;;;5.71;100.00;101701.03;5031809;28;20135;-76
2022/02/01 08:29:18;;;;;;;15.32;4.85;;;;;;;5.69;100.00;101702.78;5034745;28;20125;-75
2022/02/01 08:31:50;;;;;;;11.20;4.57;;;;;;;5.69;100.00;101676.31;5036217;28;20056;-75
2022/02/01 08:34:18;;;;;;;12.98;4.18;;;;;;;5.73;100.00;101684.25;5036074;28;20363;-76
2022/02/01 08:36:49;;;;;;;14.80;4.57;;;;;;;5.72;100.00;101671.91;5035568;28;20045;-75
2022/02/01 08:39:20;;;;;;;13.07;4.75;;;;;;;5.70;100.00;101681.56;5035901;28;20060;-76
2022/02/01 08:41:49;;;;;;;13.52;4.97;;;;;;;5.67;100.00;101659.50;5035413;28;20072;-76
2022/02/01 08:44:24;;;;;;;13.98;4.57;;;;;;;5.68;100.00;101640.97;5035884;28;20056;-77
2022/02/01 08:46:54;;;;;;;12.32;4.50;;;;;;;5.72;100.00;101640.13;5035316;28;20124;-77
2022/02/01 08:49:22;;;;;;;13.32;4.82;;;;;;;5.73;100.00;101641.00;5035840;28;20092;-76
2022/02/01 08:51:58;;;;;;;12.30;5.07;;;;;;;5.76;100.00;101623.34;5035678;28;20386;-76
2022/02/01 08:54:29;;;;;;;11.38;5.15;;;;;;;5.76;100.00;101620.69;5034980;28;20049;-77
2022/02/01 09:11:26;;;;;;;12.52;4.53;;;;;;;5.81;100.00;101620.69;5021809;28;19928;-72
2022/02/01 09:14:24;;;;;;;11.02;4.13;;;;;;;5.81;100.00;101620.69;5034744;28;20144;-71
2022/02/01 09:17:17;;;;;;;8.85;4.70;;;;;;;5.87;100.00;101602.13;5034502;28;20049;-71
2022/02/01 09:20:19;;;;;;;14.98;4.25;;;;;;;5.87;100.00;101580.94;5034981;28;20059;-70
2022/02/01 09:22:56;;;;;;;14.65;6.03;;;;;;;5.89;100.00;101571.25;5035006;28;20073;-70
2022/02/01 09:25:28;;;;;;;18.02;5.97;;;;;;;5.89;100.00;101559.75;5033448;28;20053;-70
2022/02/01 09:28:13;;;;;;;20.92;7.38;;;;;;;5.91;100.00;101537.69;5033978;28;20049;-70
2022/02/01 09:30:42;;;;;;;15.23;6.65;;;;;;;5.95;100.00;101541.22;5034621;28;20049;-76
2022/02/01 09:33:12;;;;;;;17.10;6.95;;;;;;;6.02;100.00;101545.66;5034789;28;20064;-75
2022/02/01 09:35:40;;;;;;;12.63;6.22;;;;;;;6.04;100.00;101549.16;5035246;28;20081;-75
2022/02/01 09:38:10;;;;;;;16.75;6.97;;;;;;;6.06;100.00;101530.63;5035130;28;20187;-75
2022/02/01 09:40:46;;;;;;;14.95;5.82;;;;;;;6.06;100.00;101526.22;5034769;28;20091;-75
2022/02/01 09:43:14;;;;;;;21.60;5.60;;;;;;;6.12;100.00;101530.63;5035166;28;20064;-75
2022/02/01 09:45:42;;;;;;;21.98;7.03;;;;;;;6.10;100.00;101529.75;5034787;28;20056;-75
2022/02/01 09:48:32;;;;;;;21.15;7.13;;;;;;;6.09;100.00;101517.38;5034267;28;20077;-75
2022/02/01 09:51:02;;;;;;;20.85;6.70;;;;;;;6.14;100.00;101539.44;5034182;28;20056;-76
2022/02/01 09:53:29;;;;;;;20.48;7.38;;;;;;;6.15;100.00;101527.97;5034283;28;20062;-75
2022/02/01 09:55:58;;;;;;;15.52;6.30;;;;;;;6.19;100.00;101515.59;5034437;28;20049;-75
2022/02/01 09:58:30;;;;;;;17.70;6.82;;;;;;;6.19;100.00;101497.91;5033824;28;20091;-74
2022/02/01 10:00:58;;;;;;;21.38;7.55;;;;;;;6.24;100.00;101495.25;5034132;28;20057;-74
2022/02/01 10:03:26;;;;;;;13.32;6.50;;;;;;;6.23;100.00;101507.63;5034037;28;20099;-74
2022/02/01 10:06:07;;;;;;;19.58;7.13;;;;;;;6.26;100.00;101504.94;5034049;28;20063;-74
2022/02/01 10:08:35;;;;;;;14.80;5.88;;;;;;;6.29;100.00;101499.63;5034314;28;20466;-74
2022/02/01 10:11:05;;;;;;;23.88;8.30;;;;;;;6.29;100.00;101520.84;5033959;28;20053;-73
2022/02/01 10:13:36;;;;;;;22.50;8.98;;;;;;;6.36;100.00;101511.09;5033557;28;20499;-73
2022/02/01 10:16:11;;;;;;;16.55;9.82;;;;;;;6.44;100.00;101513.72;5033694;28;20057;-73
2022/02/01 10:18:39;;;;;;;22.42;10.27;;;;;;;6.47;100.00;101509.28;5033607;28;20056;-72
2022/02/01 10:21:11;;;;;;;27.17;11.05;;;;;;;6.50;100.00;101516.34;5033905;28;20041;-73
2022/02/01 10:23:40;;;;;;;24.40;10.27;;;;;;;6.50;100.00;101509.28;5033526;28;20414;-73
2022/02/01 10:26:11;;;;;;;21.17;9.43;;;;;;;6.53;100.00;101501.28;5033707;28;20125;-73
2022/02/01 10:28:53;;;;;;;21.52;9.23;;;;;;;6.56;100.00;101511.00;5033412;28;20523;-74
2022/02/01 10:31:28;;;;;;;21.52;8.60;;;;;;;6.59;100.00;101513.66;5033414;28;20049;-74
2022/02/01 10:34:03;;;;;;;22.58;9.32;;;;;;;6.59;100.00;101524.25;5033075;28;20128;-73
2022/02/01 10:36:58;;;;;;;20.10;7.43;;;;;;;6.67;100.00;101505.66;5033352;28;20060;-73
2022/02/01 10:39:27;;;;;;;15.98;6.65;;;;;;;6.72;100.00;101503.84;5033797;28;20088;-74
2022/02/01 10:41:57;;;;;;;21.70;6.95;;;;;;;6.76;100.00;101510.00;5033416;28;20099;-73
2022/02/01 10:44:38;;;;;;;21.98;6.93;;;;;;;6.78;100.00;101508.25;5033362;28;20099;-73
2022/02/01 10:47:07;;;;;;;19.35;7.32;;;;;;;6.81;100.00;101497.59;5033314;28;20053;-74
2022/02/01 10:49:54;;;;;;;17.00;6.13;;;;;;;6.86;100.00;101483.44;5032993;28;20088;-74
2022/02/01 10:52:24;;;;;;;15.85;6.47;;;;;;;6.92;100.00;101501.09;5032928;28;20083;-73
2022/02/01 10:54:53;;;;;;;17.27;6.22;;;;;;;7.04;100.00;101511.63;5033221;28;20041;-73
2022/02/01 10:57:21;;;;;;;11.05;4.55;;;;;;;7.11;100.00;101517.75;5032781;28;20053;-74
2022/02/01 10:59:48;;;;;;;17.75;5.97;;;;;;;7.15;100.00;101511.56;5032880;28;20053;-74
2022/02/01 11:02:17;;;;;;;22.55;5.63;;;;;;;7.21;100.00;101506.19;5032775;28;20077;-74
2022/02/01 11:04:46;;;;;;;18.10;4.63;;;;;;;7.34;100.00;101509.63;5032745;28;20049;-74
2022/02/01 11:07:14;;;;;;;21.27;5.97;;;;;;;7.36;100.00;101497.22;5032730;28;20057;-74
2022/02/01 11:09:44;;;;;;;16.00;5.18;;;;;;;7.41;100.00;101499.84;5033230;28;20080;-74
2022/02/01 11:12:13;;;;;;;12.45;4.00;;;;;;;7.40;100.00;101495.41;5033129;28;20053;-76
2022/02/01 11:14:43;;;;;;;17.27;5.22;;;;;;;7.39;100.00;101505.19;5032691;28;20056;-73
2022/02/01 11:17:14;;;;;;;19.27;5.72;;;;;;;7.41;100.00;101495.41;5033287;28;20445;-76
2022/02/01 11:19:47;;;;;;;18.67;5.78;;;;;;;7.43;100.00;101495.41;5033185;28;20061;-74
2022/02/01 11:22:37;;;;;;;15.52;4.93;;;;;;;7.46;100.00;101488.28;5032508;28;20049;-76
2022/02/01 11:25:25;;;;;;;19.33;5.20;;;;;;;7.47;100.00;101486.50;5032025;28;20053;-67
2022/02/01 11:28:40;;;;;;;27.42;5.68;;;;;;;7.48;100.00;101489.16;5030918;28;20109;-67
2022/02/01 11:31:36;;;;;;;15.77;5.60;;;;;;;7.50;100.00;101498.88;5031366;28;20157;-67
2022/02/01 11:34:23;;;;;;;12.80;5.43;;;;;;;7.55;100.00;101489.97;5032216;28;20049;-67
2022/02/01 11:37:55;;;;;;;17.63;5.63;;;;;;;7.57;100.00;101487.31;5032107;28;20057;-67
2022/02/01 11:43:47;;;;;;;17.50;5.10;;;;;;;7.63;100.00;101437.66;5032122;28;20053;-67
2022/02/01 11:46:28;;;;;;;14.25;4.35;;;;;;;7.65;100.00;101445.63;5032431;28;20053;-68
2022/02/01 11:49:02;;;;;;;11.82;5.00;;;;;;;7.66;100.00;101439.41;5032215;28;20152;-68
2022/02/01 11:52:06;;;;;;;12.45;3.85;;;;;;;7.69;100.00;101427.88;5031044;28;20053;-70
2022/02/01 11:54:40;;;;;;;13.43;3.92;;;;;;;7.77;100.00;101424.22;5031755;28;20426;-68
2022/02/01 11:57:30;;;;;;;13.30;4.30;;;;;;;7.84;100.00;101430.34;5030473;28;20045;-68
2022/02/01 12:00:08;;;;;;;18.10;4.45;;;;;;;7.94;100.00;101439.97;5031408;28;20486;-68
2022/02/01 12:02:48;;;;;;;12.05;4.35;;;;;;;8.00;100.00;101441.69;5030754;28;20049;-68
2022/02/01 12:05:29;;;;;;;12.18;4.45;;;;;;;8.00;100.00;101436.38;5031668;28;20049;-68
2022/02/01 12:10:52;;;;;;;17.00;5.35;;;;;;;8.00;100.00;101442.59;5029402;28;20140;-69
2022/02/01 12:13:27;;;;;;;15.18;4.30;;;;;;;8.03;100.00;101433.69;5030707;28;20051;-70
2022/02/01 12:16:01;;;;;;;18.15;4.57;;;;;;;8.08;100.00;101423.88;5031448;28;20045;-69
2022/02/01 12:18:41;;;;;;;10.00;4.22;;;;;;;8.11;100.00;101415.00;5031989;28;20161;-69
2022/02/01 12:21:30;;;;;;;11.27;3.88;;;;;;;8.16;100.00;101408.72;5032098;28;20084;-69
2022/02/01 12:24:26;;;;;;;12.57;4.47;;;;;;;8.22;100.00;101402.41;5030679;28;20497;-68
2022/02/01 12:27:26;;;;;;;12.63;4.38;;;;;;;8.24;100.00;101403.31;5031689;28;20457;-68
2022/02/01 12:30:20;;;;;;;16.38;4.40;;;;;;;8.29;100.00;101396.16;5030542;28;20405;-69
2022/02/01 12:32:50;;;;;;;12.35;3.80;;;;;;;8.30;100.00;101407.66;5031423;28;20057;-68
2022/02/01 12:35:33;;;;;;;17.33;4.68;;;;;;;8.20;100.00;101407.75;5030926;28;20084;-68
2022/02/01 12:38:10;;;;;;;19.73;4.80;;;;;;;8.21;100.00;101400.69;5031176;28;20058;-68
2022/02/01 12:40:42;;;;;;;15.27;4.13;;;;;;;8.27;100.00;101397.06;5031306;28;20053;-68
2022/02/01 12:49:50;;;;;;;14.23;4.03;;;;;;;8.43;100.00;101388.00;5031363;28;20108;-69
2022/02/01 12:52:38;;;;;;;15.93;5.07;;;;;;;8.41;100.00;101364.06;5027291;28;20054;-69
2022/02/01 12:55:32;;;;;;;11.02;3.33;;;;;;;8.47;100.00;101360.44;5032221;28;20045;-69
2022/02/01 13:07:48;;;;;;;10.77;3.03;;;;;;;8.74;100.00;101347.63;5029926;28;20045;-69
2022/02/01 13:29:09;;;;;;;10.77;4.00;;;;;;;8.89;100.00;101350.03;4993467;28;20438;-70
2022/02/01 13:31:53;;;;;;;11.10;4.10;;;;;;;8.95;100.00;101341.91;4993196;28;20061;-80
2022/02/01 13:34:27;;;;;;;13.63;4.25;;;;;;;8.94;100.00;101368.59;4993259;28;20594;-81
2022/02/01 13:37:00;;;;;;;11.38;4.45;;;;;;;8.93;100.00;101364.16;4993430;28;20137;-79
2022/02/01 13:39:30;;;;;;;11.20;3.53;;;;;;;8.91;100.00;101372.16;4993275;28;20069;-79
2022/02/01 13:42:00;;;;;;;8.32;3.28;;;;;;;8.97;100.00;101363.19;4992951;28;20138;-79
2022/02/01 13:44:52;;;;;;;8.23;3.20;;;;;;;8.92;100.00;101360.63;4993409;28;20135;-79
2022/02/01 13:47:20;;;;;;;9.60;3.30;;;;;;;8.98;100.00;101349.84;4993231;28;20085;-79